Time;durP1;ratioP1;P1;durP2;ratioP2;P2;SDS_P1;SDS_P2;PMS_P1;PMS_P2;Temp;Humidity;BMP_temperature;BMP_pressure;BME280_temperature;BME280_humidity;BME280_pressure;Samples;Min_cycle;Max_cycle;Signal;HPM_P1;HPM_P2
2021/09/14 00:00:25;;;;;;;14.68;8.90;;;;;;;;;;4978647;28;20030;-81
2021/09/14 00:02:51;;;;;;;14.05;6.30;;;;;;;;;;4968475;28;20061;-81
2021/09/14 00:05:18;;;;;;;8.60;3.28;;;;;;;;;;4959940;28;20133;-80
2021/09/14 00:07:46;;;;;;;8.30;2.90;;;;;;;;;;4974070;28;20117;-81
2021/09/14 00:10:12;;;;;;;6.53;2.58;;;;;;;;;;4959767;28;20099;-80
2021/09/14 00:12:39;;;;;;;6.50;2.67;;;;;;;;;;4956121;28;20117;-78
2021/09/14 00:15:07;;;;;;;7.47;2.83;;;;;;;;;;4960984;28;20348;-78
2021/09/14 00:17:34;;;;;;;6.85;2.50;;;;;;;;;;4953237;28;20042;-78
2021/09/14 00:20:02;;;;;;;7.55;2.50;;;;;;;;;;4958039;28;20302;-80
2021/09/14 00:22:29;;;;;;;7.63;2.67;;;;;;;;;;4953858;28;20042;-77
2021/09/14 00:24:56;;;;;;;9.50;2.55;;;;;;;;;;4953843;28;20046;-78
2021/09/14 00:27:23;;;;;;;6.68;2.25;;;;;;;;;;4968316;28;20154;-80
2021/09/14 00:29:51;;;;;;;7.80;2.10;;;;;;;;;;4943956;28;20089;-79
2021/09/14 00:32:19;;;;;;;7.10;2.22;;;;;;;;;;4940442;28;20039;-78
2021/09/14 00:34:46;;;;;;;8.18;2.65;;;;;;;;;;4948547;28;20170;-79
2021/09/14 00:37:17;;;;;;;7.78;2.03;;;;;;;;;;4963760;28;20041;-78
2021/09/14 00:39:43;;;;;;;5.85;1.90;;;;;;;;;;4959890;28;20383;-78
2021/09/14 00:42:09;;;;;;;7.95;2.45;;;;;;;;;;4963069;28;20031;-78
2021/09/14 00:44:35;;;;;;;6.32;1.90;;;;;;;;;;4966201;28;21458;-78
2021/09/14 00:47:04;;;;;;;6.30;2.30;;;;;;;;;;4959289;28;20034;-79
2021/09/14 00:49:34;;;;;;;6.68;2.00;;;;;;;;;;4953099;28;20367;-77
2021/09/14 00:52:00;;;;;;;7.72;2.60;;;;;;;;;;4959325;28;20345;-78
2021/09/14 00:54:28;;;;;;;6.00;2.15;;;;;;;;;;4957307;28;20347;-78
2021/09/14 00:56:57;;;;;;;5.95;2.35;;;;;;;;;;4962193;28;20106;-79
2021/09/14 00:59:25;;;;;;;7.50;2.78;;;;;;;;;;4955496;28;20121;-78
2021/09/14 01:01:57;;;;;;;7.85;2.53;;;;;;;;;;4961927;28;20030;-78
2021/09/14 01:04:25;;;;;;;7.15;2.28;;;;;;;;;;4969256;28;20035;-78
2021/09/14 01:06:52;;;;;;;6.38;2.17;;;;;;;;;;4957916;28;20039;-78
2021/09/14 01:09:21;;;;;;;5.28;1.98;;;;;;;;;;4957224;28;20430;-78
2021/09/14 01:11:48;;;;;;;5.15;1.98;;;;;;;;;;4976283;28;20293;-78
2021/09/14 01:14:16;;;;;;;7.38;2.08;;;;;;;;;;4961959;28;20064;-78
2021/09/14 01:16:43;;;;;;;5.57;2.00;;;;;;;;;;4976369;28;20042;-78
2021/09/14 01:19:12;;;;;;;7.93;1.90;;;;;;;;;;4958523;28;20043;-77
2021/09/14 01:21:38;;;;;;;6.03;2.17;;;;;;;;;;4956397;28;20065;-77
2021/09/14 01:24:06;;;;;;;8.10;2.50;;;;;;;;;;4960139;28;20022;-78
2021/09/14 01:26:34;;;;;;;7.47;2.30;;;;;;;;;;4957476;28;20137;-78
2021/09/14 01:29:09;;;;;;;6.47;2.38;;;;;;;;;;4956157;28;20038;-78
2021/09/14 01:31:37;;;;;;;5.45;2.00;;;;;;;;;;4948074;28;21223;-79
2021/09/14 01:34:04;;;;;;;6.95;1.80;;;;;;;;;;4960740;28;20090;-80
2021/09/14 01:36:30;;;;;;;6.35;2.42;;;;;;;;;;4960084;28;20029;-80
2021/09/14 01:38:57;;;;;;;5.70;2.20;;;;;;;;;;4958624;28;20019;-78
2021/09/14 01:41:25;;;;;;;7.15;2.22;;;;;;;;;;4957960;28;20042;-77
2021/09/14 01:43:52;;;;;;;5.28;1.73;;;;;;;;;;4962610;28;20132;-78
2021/09/14 01:46:19;;;;;;;6.32;2.33;;;;;;;;;;4973674;28;20046;-80
2021/09/14 01:48:45;;;;;;;6.50;2.20;;;;;;;;;;4978461;28;20043;-78
2021/09/14 01:51:14;;;;;;;6.10;2.35;;;;;;;;;;4958674;28;20541;-80
2021/09/14 01:53:41;;;;;;;6.90;2.17;;;;;;;;;;4960108;28;20100;-78
2021/09/14 01:56:09;;;;;;;7.25;2.35;;;;;;;;;;4966222;28;20050;-78
2021/09/14 01:58:37;;;;;;;6.18;2.10;;;;;;;;;;4956212;28;21520;-78
2021/09/14 02:01:19;;;;;;;16.45;9.95;;;;;;;;;;4959309;28;20112;-77
2021/09/14 02:04:04;;;;;;;19.25;11.93;;;;;;;;;;4984069;28;21027;-78
2021/09/14 02:06:56;;;;;;;15.52;7.80;;;;;;;;;;4948077;28;20045;-77
2021/09/14 02:59:06;;;;;;;8.30;2.15;;;;;;;;;;4962937;28;20109;-78
2021/09/14 03:01:33;;;;;;;6.40;1.60;;;;;;;;;;4952369;28;20030;-77
2021/09/14 03:04:02;;;;;;;6.07;1.85;;;;;;;;;;4961688;28;20042;-78
2021/09/14 03:06:33;;;;;;;7.18;1.80;;;;;;;;;;4956492;28;20042;-78
2021/09/14 03:09:00;;;;;;;5.80;1.70;;;;;;;;;;4973773;28;20034;-78
2021/09/14 03:11:27;;;;;;;6.35;1.80;;;;;;;;;;4953668;28;20116;-77
2021/09/14 03:13:56;;;;;;;6.10;1.80;;;;;;;;;;4950819;28;20048;-77
2021/09/14 03:16:24;;;;;;;6.53;2.00;;;;;;;;;;4951068;28;20125;-77
2021/09/14 03:18:51;;;;;;;4.43;1.60;;;;;;;;;;4958943;28;20062;-78
2021/09/14 03:21:18;;;;;;;5.07;1.60;;;;;;;;;;4957336;28;20033;-78
2021/09/14 03:23:45;;;;;;;5.88;1.77;;;;;;;;;;4974064;28;20038;-78
2021/09/14 03:26:13;;;;;;;5.05;1.60;;;;;;;;;;4951478;28;20054;-78
2021/09/14 03:28:40;;;;;;;6.85;2.00;;;;;;;;;;4956185;28;20156;-78
2021/09/14 03:31:07;;;;;;;5.80;2.03;;;;;;;;;;4958395;28;20058;-78
2021/09/14 03:33:35;;;;;;;7.70;2.22;;;;;;;;;;4953303;28;20078;-78
2021/09/14 03:36:04;;;;;;;4.63;1.70;;;;;;;;;;4957701;28;20038;-78
2021/09/14 03:38:31;;;;;;;6.88;1.85;;;;;;;;;;4954821;28;20088;-78
2021/09/14 03:40:58;;;;;;;5.13;1.80;;;;;;;;;;4961926;28;20058;-80
2021/09/14 03:43:24;;;;;;;5.55;1.50;;;;;;;;;;4970414;28;20095;-78
2021/09/14 03:45:50;;;;;;;5.47;2.03;;;;;;;;;;4958964;28;20051;-77
2021/09/14 03:48:19;;;;;;;6.63;2.17;;;;;;;;;;4961118;28;20608;-78
2021/09/14 03:50:47;;;;;;;10.00;2.17;;;;;;;;;;4960869;28;20045;-77
2021/09/14 03:53:14;;;;;;;6.78;1.88;;;;;;;;;;4961964;28;20144;-79
2021/09/14 03:55:41;;;;;;;10.40;5.57;;;;;;;;;;4960420;28;20127;-78
2021/09/14 03:58:08;;;;;;;5.78;1.67;;;;;;;;;;4959911;28;20034;-78
2021/09/14 04:00:35;;;;;;;7.70;1.80;;;;;;;;;;4958050;28;20033;-77
2021/09/14 04:03:12;;;;;;;6.05;2.10;;;;;;;;;;4980463;28;20077;-77
2021/09/14 04:06:07;;;;;;;7.13;2.00;;;;;;;;;;4958951;28;20129;-78
2021/09/14 04:11:12;;;;;;;6.13;2.20;;;;;;;;;;4965467;28;20522;-78
2021/09/14 04:13:40;;;;;;;5.38;2.00;;;;;;;;;;4971899;28;20038;-78
2021/09/14 04:16:07;;;;;;;5.00;1.80;;;;;;;;;;4978964;28;20365;-78
2021/09/14 04:18:34;;;;;;;5.68;2.05;;;;;;;;;;4964974;28;20539;-78
2021/09/14 04:21:01;;;;;;;9.50;2.47;;;;;;;;;;4967007;28;20119;-79
2021/09/14 04:23:28;;;;;;;8.90;2.38;;;;;;;;;;4978675;28;20030;-78
2021/09/14 04:25:56;;;;;;;7.72;2.75;;;;;;;;;;4947569;28;20031;-78
2021/09/14 04:28:23;;;;;;;6.78;2.28;;;;;;;;;;4973892;28;20056;-78
2021/09/14 04:30:52;;;;;;;7.50;2.28;;;;;;;;;;4965924;28;20030;-79
2021/09/14 04:33:20;;;;;;;5.35;2.20;;;;;;;;;;4957754;28;20054;-78
2021/09/14 04:35:48;;;;;;;12.00;5.75;;;;;;;;;;4957244;28;20760;-78
2021/09/14 04:38:15;;;;;;;11.98;6.63;;;;;;;;;;4952590;28;20113;-78
2021/09/14 04:40:43;;;;;;;11.23;5.72;;;;;;;;;;4957778;28;20049;-78
2021/09/14 04:43:09;;;;;;;10.02;4.72;;;;;;;;;;4965550;28;20053;-79
2021/09/14 04:45:38;;;;;;;8.93;3.88;;;;;;;;;;4972442;28;20038;-79
2021/09/14 04:48:04;;;;;;;9.43;3.40;;;;;;;;;;4958747;28;20023;-78
2021/09/14 04:50:31;;;;;;;7.72;2.60;;;;;;;;;;4958581;28;20023;-78
2021/09/14 04:52:58;;;;;;;8.45;2.67;;;;;;;;;;4979256;28;20858;-77
2021/09/14 04:55:25;;;;;;;8.07;2.17;;;;;;;;;;4954381;28;20053;-77
2021/09/14 04:57:52;;;;;;;7.00;2.10;;;;;;;;;;4966429;28;20046;-79
2021/09/14 05:00:19;;;;;;;6.47;2.08;;;;;;;;;;4957125;28;20499;-79
2021/09/14 05:02:46;;;;;;;7.13;1.88;;;;;;;;;;4961875;28;20042;-79
2021/09/14 05:05:13;;;;;;;10.00;2.88;;;;;;;;;;4955349;28;20044;-79
2021/09/14 05:07:40;;;;;;;5.75;1.95;;;;;;;;;;4959081;28;20034;-78
2021/09/14 05:10:08;;;;;;;10.82;2.35;;;;;;;;;;4959959;28;20045;-78
2021/09/14 05:12:35;;;;;;;5.72;1.85;;;;;;;;;;4956935;28;20050;-79
2021/09/14 05:15:03;;;;;;;6.60;1.70;;;;;;;;;;4961072;28;20054;-78
2021/09/14 05:17:30;;;;;;;4.82;1.75;;;;;;;;;;4973329;28;20543;-78
2021/09/14 05:19:57;;;;;;;7.28;2.05;;;;;;;;;;4956990;28;20137;-79
2021/09/14 05:22:30;;;;;;;5.55;1.77;;;;;;;;;;4970352;28;20045;-79
2021/09/14 05:24:58;;;;;;;7.15;2.20;;;;;;;;;;4961433;28;20034;-79
2021/09/14 05:27:26;;;;;;;6.40;2.10;;;;;;;;;;4956341;28;20165;-79
2021/09/14 05:29:55;;;;;;;9.82;2.47;;;;;;;;;;4971554;28;20065;-79
2021/09/14 05:32:22;;;;;;;14.45;2.78;;;;;;;;;;4938857;28;20755;-79
2021/09/14 05:34:49;;;;;;;11.40;3.13;;;;;;;;;;4952462;28;20070;-79
2021/09/14 05:37:18;;;;;;;7.88;2.85;;;;;;;;;;4942491;28;20138;-79
2021/09/14 05:39:47;;;;;;;12.38;3.08;;;;;;;;;;4941303;28;20034;-80
2021/09/14 05:42:14;;;;;;;13.73;3.72;;;;;;;;;;4939112;28;20038;-79
2021/09/14 05:44:41;;;;;;;10.55;3.25;;;;;;;;;;4942733;28;20038;-79
2021/09/14 05:47:08;;;;;;;11.93;4.10;;;;;;;;;;4937796;28;20089;-79
2021/09/14 05:49:35;;;;;;;12.10;4.10;;;;;;;;;;4949686;28;20041;-80
2021/09/14 05:52:03;;;;;;;13.85;4.85;;;;;;;;;;4960698;28;20113;-78
2021/09/14 05:54:30;;;;;;;12.82;4.05;;;;;;;;;;4969249;28;20540;-77
2021/09/14 05:56:57;;;;;;;14.73;4.70;;;;;;;;;;4965160;28;20109;-80
2021/09/14 05:59:25;;;;;;;12.90;3.83;;;;;;;;;;4955809;28;20038;-79
2021/09/14 06:01:53;;;;;;;10.73;3.78;;;;;;;;;;4959044;28;20562;-80
2021/09/14 06:04:20;;;;;;;11.55;3.40;;;;;;;;;;4956186;28;20038;-80
2021/09/14 06:06:47;;;;;;;10.82;2.90;;;;;;;;;;4957782;28;20080;-79
2021/09/14 06:09:14;;;;;;;12.35;3.20;;;;;;;;;;4960476;28;20118;-79
2021/09/14 06:11:41;;;;;;;11.70;2.55;;;;;;;;;;4952851;28;20050;-79
2021/09/14 06:14:08;;;;;;;7.00;2.72;;;;;;;;;;4973631;28;20539;-79
2021/09/14 06:16:35;;;;;;;13.25;2.83;;;;;;;;;;4957738;28;20431;-79
2021/09/14 06:19:04;;;;;;;9.10;2.65;;;;;;;;;;4963328;28;20042;-79
2021/09/14 06:21:32;;;;;;;9.13;2.50;;;;;;;;;;4959493;28;20030;-79
2021/09/14 06:24:01;;;;;;;9.77;2.92;;;;;;;;;;4962378;28;20038;-79
2021/09/14 06:26:28;;;;;;;7.75;2.05;;;;;;;;;;4956752;28;20492;-78
2021/09/14 06:28:56;;;;;;;7.85;2.40;;;;;;;;;;4960129;28;20577;-78
2021/09/14 06:31:24;;;;;;;7.90;2.40;;;;;;;;;;4972836;28;20419;-79
2021/09/14 06:33:52;;;;;;;7.65;2.22;;;;;;;;;;4975963;28;20062;-79
2021/09/14 06:36:19;;;;;;;9.60;2.22;;;;;;;;;;4970559;28;20038;-78
2021/09/14 06:38:46;;;;;;;6.93;2.47;;;;;;;;;;4960713;28;20116;-78
2021/09/14 06:41:12;;;;;;;12.05;2.90;;;;;;;;;;4950992;28;20042;-79
2021/09/14 06:43:39;;;;;;;8.57;2.60;;;;;;;;;;4957138;28;20034;-78
2021/09/14 06:46:06;;;;;;;7.40;2.30;;;;;;;;;;4955594;28;20065;-80
2021/09/14 06:48:33;;;;;;;11.25;2.60;;;;;;;;;;4957112;28;20026;-79
2021/09/14 06:51:00;;;;;;;9.10;2.83;;;;;;;;;;4962522;28;20048;-79
2021/09/14 06:53:29;;;;;;;8.48;2.55;;;;;;;;;;4953859;28;20501;-79
2021/09/14 06:55:56;;;;;;;9.20;2.60;;;;;;;;;;4976509;28;20041;-82
2021/09/14 06:58:23;;;;;;;18.33;3.17;;;;;;;;;;4955474;28;20027;-82
2021/09/14 07:00:50;;;;;;;10.57;2.55;;;;;;;;;;4977030;28;20463;-82
2021/09/14 07:03:18;;;;;;;8.55;2.60;;;;;;;;;;4973099;28;20030;-82
2021/09/14 07:05:45;;;;;;;10.68;2.28;;;;;;;;;;4952305;28;21028;-82
2021/09/14 07:08:13;;;;;;;11.85;2.58;;;;;;;;;;4943993;28;20070;-82
2021/09/14 07:10:40;;;;;;;9.13;2.70;;;;;;;;;;4958454;28;20050;-82
2021/09/14 07:13:07;;;;;;;9.13;2.70;;;;;;;;;;4972956;28;20096;-81
2021/09/14 07:15:35;;;;;;;10.85;2.70;;;;;;;;;;4955162;28;20467;-81
2021/09/14 07:18:03;;;;;;;10.30;2.80;;;;;;;;;;4959843;28;20752;-82
2021/09/14 07:20:31;;;;;;;9.55;2.60;;;;;;;;;;4956071;28;20042;-80
2021/09/14 07:22:58;;;;;;;9.82;2.55;;;;;;;;;;4964787;28;20034;-82
2021/09/14 07:25:25;;;;;;;12.13;2.42;;;;;;;;;;4958697;28;20116;-82
2021/09/14 07:27:52;;;;;;;11.10;2.20;;;;;;;;;;4975746;28;20061;-81
2021/09/14 07:30:20;;;;;;;9.43;1.98;;;;;;;;;;4961315;28;20030;-80
2021/09/14 07:32:53;;;;;;;8.40;2.20;;;;;;;;;;4972953;28;20035;-81
2021/09/14 07:35:22;;;;;;;7.35;1.83;;;;;;;;;;4959107;28;20054;-81
2021/09/14 07:37:50;;;;;;;8.80;2.60;;;;;;;;;;4964971;28;20448;-82
2021/09/14 07:40:17;;;;;;;7.97;1.80;;;;;;;;;;4976357;28;20104;-81
2021/09/14 07:42:44;;;;;;;7.78;2.10;;;;;;;;;;4958438;28;20038;-81
2021/09/14 07:45:11;;;;;;;9.68;2.03;;;;;;;;;;4962954;28;20030;-83
2021/09/14 07:47:37;;;;;;;10.32;2.00;;;;;;;;;;4959213;28;21325;-81
2021/09/14 07:50:04;;;;;;;7.88;2.17;;;;;;;;;;4965547;28;20038;-80
2021/09/14 07:52:31;;;;;;;7.80;1.80;;;;;;;;;;4959116;28;20030;-80
2021/09/14 07:54:58;;;;;;;7.68;2.00;;;;;;;;;;4962860;28;20133;-82
2021/09/14 07:57:25;;;;;;;7.25;1.75;;;;;;;;;;4960508;28;20027;-82
2021/09/14 07:59:53;;;;;;;12.60;2.00;;;;;;;;;;4963712;28;20038;-82
2021/09/14 08:02:21;;;;;;;7.00;1.95;;;;;;;;;;4956115;28;20830;-82
2021/09/14 08:04:48;;;;;;;8.43;2.10;;;;;;;;;;4966985;28;20034;-82
2021/09/14 08:07:15;;;;;;;9.10;2.20;;;;;;;;;;4963821;28;20026;-83
2021/09/14 08:09:42;;;;;;;8.65;2.08;;;;;;;;;;4959330;28;20027;-82
2021/09/14 08:12:09;;;;;;;12.30;3.08;;;;;;;;;;4982556;28;20394;-81
2021/09/14 08:14:36;;;;;;;9.35;2.30;;;;;;;;;;4953632;28;20045;-81
2021/09/14 08:17:03;;;;;;;10.00;2.15;;;;;;;;;;4982633;28;20280;-80
2021/09/14 08:19:30;;;;;;;7.13;2.10;;;;;;;;;;4989989;28;20019;-81
2021/09/14 08:21:58;;;;;;;7.93;1.85;;;;;;;;;;4986359;28;20034;-81
2021/09/14 08:24:24;;;;;;;11.60;2.13;;;;;;;;;;4962298;28;20046;-82
2021/09/14 08:26:51;;;;;;;9.27;2.10;;;;;;;;;;4979069;28;20030;-82
2021/09/14 08:29:18;;;;;;;9.02;1.80;;;;;;;;;;4979094;28;20038;-82
2021/09/14 08:31:45;;;;;;;9.43;2.00;;;;;;;;;;4973930;28;20034;-82
2021/09/14 08:34:12;;;;;;;8.18;2.15;;;;;;;;;;4982682;28;22505;-81
2021/09/14 08:36:40;;;;;;;7.55;1.85;;;;;;;;;;4963768;28;20134;-81
2021/09/14 08:39:07;;;;;;;6.57;1.80;;;;;;;;;;4963897;28;20509;-82
2021/09/14 08:41:34;;;;;;;10.95;2.50;;;;;;;;;;4961981;28;20046;-82
2021/09/14 08:44:01;;;;;;;8.60;2.42;;;;;;;;;;4968407;28;20448;-81
2021/09/14 08:46:28;;;;;;;7.60;1.90;;;;;;;;;;4958241;28;20689;-80
2021/09/14 08:48:55;;;;;;;8.20;2.10;;;;;;;;;;4953063;28;20038;-80
2021/09/14 08:51:22;;;;;;;10.70;2.15;;;;;;;;;;4964554;28;20814;-83
2021/09/14 08:53:50;;;;;;;7.07;1.63;;;;;;;;;;4961883;28;20041;-83
2021/09/14 08:56:16;;;;;;;7.05;1.92;;;;;;;;;;4967309;28;20220;-81
2021/09/14 08:58:43;;;;;;;8.77;1.90;;;;;;;;;;4962441;28;20034;-84
2021/09/14 09:01:13;;;;;;;8.35;2.00;;;;;;;;;;4977911;28;20042;-82
2021/09/14 09:03:40;;;;;;;8.63;2.00;;;;;;;;;;4959087;28;20030;-82
2021/09/14 09:06:07;;;;;;;9.80;2.08;;;;;;;;;;4975727;28;20045;-82
2021/09/14 09:08:35;;;;;;;7.22;2.10;;;;;;;;;;4973829;28;20089;-82
2021/09/14 09:11:09;;;;;;;8.75;2.10;;;;;;;;;;4967941;28;20045;-81
2021/09/14 09:13:36;;;;;;;9.18;2.00;;;;;;;;;;4957257;28;20046;-81
2021/09/14 09:16:06;;;;;;;11.63;2.45;;;;;;;;;;4951156;28;20101;-83
2021/09/14 09:18:33;;;;;;;10.23;2.45;;;;;;;;;;4970808;28;20041;-83
2021/09/14 09:21:05;;;;;;;9.15;2.35;;;;;;;;;;4973074;28;20028;-82
2021/09/14 09:23:32;;;;;;;7.75;2.10;;;;;;;;;;4953956;28;20121;-83
2021/09/14 09:26:07;;;;;;;9.30;1.90;;;;;;;;;;4969962;28;20506;-83
2021/09/14 09:28:34;;;;;;;8.00;1.70;;;;;;;;;;4939950;28;20097;-83
2021/09/14 09:31:09;;;;;;;8.50;2.05;;;;;;;;;;4956720;28;20049;-83
2021/09/14 09:33:37;;;;;;;9.52;2.20;;;;;;;;;;4956457;28;20054;-83
2021/09/14 09:36:09;;;;;;;7.35;2.10;;;;;;;;;;4974619;28;20053;-82
2021/09/14 09:38:47;;;;;;;8.40;2.30;;;;;;;;;;4960874;28;20046;-82
2021/09/14 09:41:16;;;;;;;10.15;2.42;;;;;;;;;;4958380;28;20038;-81
2021/09/14 09:43:43;;;;;;;8.88;1.85;;;;;;;;;;4971031;28;20172;-82
2021/09/14 09:46:11;;;;;;;9.38;2.28;;;;;;;;;;4964111;28;20046;-82
2021/09/14 09:48:37;;;;;;;7.15;2.00;;;;;;;;;;4970373;28;20042;-82
2021/09/14 09:51:05;;;;;;;8.68;2.03;;;;;;;;;;4959947;28;20042;-82
2021/09/14 09:53:33;;;;;;;7.75;2.85;;;;;;;;;;4955335;28;20089;-82
2021/09/14 09:56:02;;;;;;;7.60;1.90;;;;;;;;;;4962497;28;20040;-82
2021/09/14 09:58:29;;;;;;;9.52;2.13;;;;;;;;;;4957913;28;20060;-82
2021/09/14 10:01:03;;;;;;;6.80;1.90;;;;;;;;;;4960008;28;20038;-84
2021/09/14 10:03:31;;;;;;;10.80;2.50;;;;;;;;;;4955107;28;20034;-81
2021/09/14 10:06:08;;;;;;;7.22;2.20;;;;;;;;;;4961815;28;20064;-81
2021/09/14 10:08:36;;;;;;;10.80;3.03;;;;;;;;;;4949220;28;20037;-81
2021/09/14 10:11:03;;;;;;;9.57;2.38;;;;;;;;;;4962127;28;20027;-82
2021/09/14 10:13:30;;;;;;;8.50;1.85;;;;;;;;;;4958199;28;20039;-82
2021/09/14 10:15:57;;;;;;;8.93;2.38;;;;;;;;;;4958426;28;20126;-82
2021/09/14 10:18:28;;;;;;;6.63;1.90;;;;;;;;;;4955457;28;20034;-80
2021/09/14 10:20:55;;;;;;;7.20;1.70;;;;;;;;;;4978565;28;20089;-82
2021/09/14 10:23:24;;;;;;;7.93;2.40;;;;;;;;;;4967888;28;20034;-81
2021/09/14 10:26:01;;;;;;;8.05;2.42;;;;;;;;;;4997991;28;20073;-82
2021/09/14 10:28:27;;;;;;;8.82;2.50;;;;;;;;;;4966137;28;20030;-82
2021/09/14 10:30:58;;;;;;;10.07;2.28;;;;;;;;;;4961240;28;20486;-82
2021/09/14 10:33:29;;;;;;;10.73;2.25;;;;;;;;;;4957518;28;20037;-81
2021/09/14 10:35:55;;;;;;;6.13;2.35;;;;;;;;;;4986760;28;20121;-82
2021/09/14 10:38:23;;;;;;;8.20;1.95;;;;;;;;;;4969649;28;20035;-81
2021/09/14 10:40:56;;;;;;;6.30;1.75;;;;;;;;;;4966762;28;20031;-82
2021/09/14 10:43:24;;;;;;;6.00;1.88;;;;;;;;;;4957194;28;20042;-82
2021/09/14 10:45:51;;;;;;;7.88;1.92;;;;;;;;;;4960451;28;20046;-82
2021/09/14 10:48:20;;;;;;;9.23;2.00;;;;;;;;;;4957097;28;20026;-81
2021/09/14 10:50:46;;;;;;;8.48;2.00;;;;;;;;;;4967784;28;20042;-83
2021/09/14 10:53:23;;;;;;;9.23;2.20;;;;;;;;;;4977649;28;20105;-83
2021/09/14 10:55:54;;;;;;;9.80;2.17;;;;;;;;;;4960890;28;20041;-82
2021/09/14 10:58:22;;;;;;;7.88;1.92;;;;;;;;;;4952156;28;20560;-81
2021/09/14 11:00:49;;;;;;;9.02;2.28;;;;;;;;;;4966041;28;20034;-82
2021/09/14 11:03:18;;;;;;;10.80;3.05;;;;;;;;;;4964293;28;20034;-82
2021/09/14 11:05:56;;;;;;;7.35;2.20;;;;;;;;;;4959500;28;20039;-81
2021/09/14 11:08:26;;;;;;;12.65;3.65;;;;;;;;;;4960559;28;20073;-81
2021/09/14 11:11:00;;;;;;;6.85;2.03;;;;;;;;;;4968382;28;20438;-81
2021/09/14 11:13:29;;;;;;;7.40;1.92;;;;;;;;;;4958156;28;20499;-82
2021/09/14 11:15:57;;;;;;;8.32;1.67;;;;;;;;;;4962512;28;20042;-81
2021/09/14 11:18:26;;;;;;;10.48;1.80;;;;;;;;;;4961619;28;20052;-81
2021/09/14 11:20:53;;;;;;;9.80;2.25;;;;;;;;;;4957544;28;20038;-81
2021/09/14 11:23:24;;;;;;;8.48;2.35;;;;;;;;;;4975833;28;20377;-82
2021/09/14 11:26:07;;;;;;;10.63;2.10;;;;;;;;;;4976478;28;20054;-82
2021/09/14 11:28:33;;;;;;;7.60;2.30;;;;;;;;;;4957159;28;20684;-82
2021/09/14 11:31:02;;;;;;;10.25;2.30;;;;;;;;;;4962624;28;20042;-83
2021/09/14 11:33:29;;;;;;;7.85;2.15;;;;;;;;;;4952241;28;20821;-82
2021/09/14 11:35:58;;;;;;;9.15;2.30;;;;;;;;;;4974772;28;20346;-83
2021/09/14 11:38:25;;;;;;;10.65;3.42;;;;;;;;;;4970662;28;20122;-82
2021/09/14 11:40:53;;;;;;;11.10;2.88;;;;;;;;;;4959462;28;20034;-83
2021/09/14 11:43:27;;;;;;;13.18;2.70;;;;;;;;;;4953410;28;20045;-82
2021/09/14 11:45:54;;;;;;;8.23;2.38;;;;;;;;;;4960663;28;20044;-82
2021/09/14 11:48:25;;;;;;;7.55;2.20;;;;;;;;;;4957632;28;21801;-82
2021/09/14 11:51:04;;;;;;;8.60;2.92;;;;;;;;;;4962731;28;20058;-83
2021/09/14 11:53:32;;;;;;;8.32;2.70;;;;;;;;;;4955773;28;20034;-83
2021/09/14 11:56:02;;;;;;;10.15;2.33;;;;;;;;;;4973756;28;20041;-82
2021/09/14 11:58:36;;;;;;;10.90;2.55;;;;;;;;;;4955222;28;20061;-83
2021/09/14 12:01:09;;;;;;;9.30;2.30;;;;;;;;;;4956425;28;20841;-82
2021/09/14 12:03:53;;;;;;;8.68;2.13;;;;;;;;;;4957655;28;20042;-83
2021/09/14 12:06:33;;;;;;;8.70;2.00;;;;;;;;;;4954729;28;20093;-82
2021/09/14 12:09:02;;;;;;;7.55;2.13;;;;;;;;;;4961985;28;20244;-82
2021/09/14 12:11:33;;;;;;;9.70;2.13;;;;;;;;;;4972635;28;20489;-82
2021/09/14 12:14:03;;;;;;;10.15;4.00;;;;;;;;;;4960550;28;21228;-82
2021/09/14 12:16:40;;;;;;;10.07;2.47;;;;;;;;;;4964779;28;20038;-81
2021/09/14 12:19:08;;;;;;;10.25;2.08;;;;;;;;;;4965260;28;20142;-81
2021/09/14 12:21:34;;;;;;;8.35;2.22;;;;;;;;;;4958333;28;20476;-82
2021/09/14 12:24:02;;;;;;;9.02;2.03;;;;;;;;;;4966551;28;20022;-81
2021/09/14 12:26:40;;;;;;;9.35;2.17;;;;;;;;;;4957889;28;20049;-83
2021/09/14 12:29:11;;;;;;;8.45;1.88;;;;;;;;;;4966883;28;20038;-82
2021/09/14 12:31:39;;;;;;;7.60;2.40;;;;;;;;;;4963962;28;20047;-82
2021/09/14 12:34:05;;;;;;;9.18;2.10;;;;;;;;;;4977507;28;20050;-82
2021/09/14 12:36:34;;;;;;;8.40;1.90;;;;;;;;;;4956554;28;21533;-82
2021/09/14 12:39:02;;;;;;;9.38;2.28;;;;;;;;;;4960647;28;20030;-82
2021/09/14 12:41:31;;;;;;;7.88;1.90;;;;;;;;;;4946714;28;20039;-81
2021/09/14 12:43:59;;;;;;;11.80;2.30;;;;;;;;;;4960771;28;20038;-81
2021/09/14 12:46:25;;;;;;;10.25;2.10;;;;;;;;;;4957329;28;20038;-83
2021/09/14 12:48:51;;;;;;;9.27;2.33;;;;;;;;;;4973276;28;20701;-81
2021/09/14 12:51:18;;;;;;;8.75;2.50;;;;;;;;;;4962022;28;20128;-81
2021/09/14 12:53:44;;;;;;;8.07;2.10;;;;;;;;;;4980600;28;20058;-81
2021/09/14 12:56:12;;;;;;;10.90;2.08;;;;;;;;;;4961730;28;20697;-81
2021/09/14 12:58:39;;;;;;;8.15;2.00;;;;;;;;;;4959439;28;20042;-82
2021/09/14 13:01:07;;;;;;;8.23;2.20;;;;;;;;;;4963025;28;20034;-81
2021/09/14 13:03:35;;;;;;;8.00;1.95;;;;;;;;;;4966837;28;20041;-81
2021/09/14 13:06:02;;;;;;;8.63;2.30;;;;;;;;;;4963731;28;20030;-81
2021/09/14 13:08:29;;;;;;;9.00;2.10;;;;;;;;;;4964371;28;20095;-82
2021/09/14 13:10:56;;;;;;;9.13;2.00;;;;;;;;;;4975690;28;20038;-82
2021/09/14 13:16:11;;;;;;;7.72;2.00;;;;;;;;;;4955921;28;20041;-81
2021/09/14 13:18:39;;;;;;;9.13;2.40;;;;;;;;;;4961633;28;20053;-83
2021/09/14 13:21:05;;;;;;;8.52;2.38;;;;;;;;;;4966115;28;20065;-81
2021/09/14 13:23:32;;;;;;;8.00;2.45;;;;;;;;;;4971985;28;20038;-81
2021/09/14 13:25:59;;;;;;;8.88;2.20;;;;;;;;;;4961859;28;20153;-82
2021/09/14 13:28:25;;;;;;;9.38;3.53;;;;;;;;;;4946648;28;20037;-81
2021/09/14 13:30:53;;;;;;;11.13;2.60;;;;;;;;;;4969683;28;20053;-82
2021/09/14 13:33:20;;;;;;;8.05;2.28;;;;;;;;;;4976333;28;20014;-81
2021/09/14 13:35:49;;;;;;;8.15;2.20;;;;;;;;;;4975184;28;20054;-82
2021/09/14 13:38:18;;;;;;;8.38;2.30;;;;;;;;;;4974666;28;20042;-82
2021/09/14 13:40:49;;;;;;;11.63;2.78;;;;;;;;;;4972768;28;20038;-81
2021/09/14 13:46:14;;;;;;;8.15;2.10;;;;;;;;;;4914219;28;20046;-81
2021/09/14 13:49:00;;;;;;;8.77;1.70;;;;;;;;;;4922680;28;20126;-83
2021/09/14 13:51:28;;;;;;;7.28;2.03;;;;;;;;;;4924429;28;20043;-83
2021/09/14 13:53:56;;;;;;;8.57;2.35;;;;;;;;;;4914866;28;20181;-83
2021/09/14 13:56:29;;;;;;;10.02;1.95;;;;;;;;;;4925524;28;20435;-81
2021/09/14 13:58:56;;;;;;;8.63;1.90;;;;;;;;;;4920909;28;20031;-81
2021/09/14 14:01:24;;;;;;;10.48;2.40;;;;;;;;;;4907142;28;20093;-83
2021/09/14 14:03:53;;;;;;;12.35;2.33;;;;;;;;;;4910221;28;20039;-82
2021/09/14 14:06:20;;;;;;;12.93;2.45;;;;;;;;;;4928021;28;20042;-82
2021/09/14 14:08:46;;;;;;;10.50;2.55;;;;;;;;;;4931150;28;20062;-81
2021/09/14 14:11:13;;;;;;;8.88;2.42;;;;;;;;;;4924987;28;20130;-81
2021/09/14 14:13:39;;;;;;;9.57;2.70;;;;;;;;;;4905913;28;20194;-81
2021/09/14 14:16:07;;;;;;;10.80;2.30;;;;;;;;;;4919005;28;20130;-81
2021/09/14 14:18:33;;;;;;;9.57;2.55;;;;;;;;;;4916646;28;20027;-81
2021/09/14 14:20:59;;;;;;;10.77;2.30;;;;;;;;;;4905841;28;20141;-83
2021/09/14 14:23:25;;;;;;;12.90;2.75;;;;;;;;;;4939055;28;20047;-82
2021/09/14 14:25:52;;;;;;;9.85;2.58;;;;;;;;;;4959268;28;20030;-82
2021/09/14 14:28:18;;;;;;;10.77;2.50;;;;;;;;;;4968348;28;20065;-82
2021/09/14 14:30:44;;;;;;;9.35;2.80;;;;;;;;;;4957881;28;20563;-82
2021/09/14 14:33:11;;;;;;;9.90;2.60;;;;;;;;;;4976289;28;20030;-83
2021/09/14 14:35:37;;;;;;;10.43;2.10;;;;;;;;;;4968907;28;20069;-82
2021/09/14 14:38:05;;;;;;;12.07;3.35;;;;;;;;;;4977255;28;20038;-81
2021/09/14 14:40:32;;;;;;;10.45;3.03;;;;;;;;;;4972787;28;20335;-81
2021/09/14 14:42:58;;;;;;;8.88;2.28;;;;;;;;;;4953940;28;20520;-82
2021/09/14 14:45:24;;;;;;;11.70;2.75;;;;;;;;;;4953144;28;20033;-81
2021/09/14 14:47:53;;;;;;;14.70;2.78;;;;;;;;;;4972162;28;20033;-81
2021/09/14 14:50:20;;;;;;;13.15;2.72;;;;;;;;;;4958261;28;20125;-82
2021/09/14 14:52:49;;;;;;;9.30;2.35;;;;;;;;;;4958779;28;20038;-82
2021/09/14 14:55:24;;;;;;;8.23;2.20;;;;;;;;;;4955662;28;20801;-81
2021/09/14 14:57:50;;;;;;;9.68;2.60;;;;;;;;;;4961470;28;20109;-81
2021/09/14 15:00:17;;;;;;;9.35;2.10;;;;;;;;;;4955755;28;20027;-80
2021/09/14 15:02:44;;;;;;;15.32;5.05;;;;;;;;;;4957677;28;20042;-82
2021/09/14 15:05:10;;;;;;;15.80;8.25;;;;;;;;;;4977603;28;20400;-81
2021/09/14 15:07:37;;;;;;;14.27;3.95;;;;;;;;;;4947563;28;20039;-80
2021/09/14 15:10:04;;;;;;;15.60;3.47;;;;;;;;;;4969165;28;20057;-84
2021/09/14 15:12:30;;;;;;;10.95;3.15;;;;;;;;;;4957525;28;20141;-82
2021/09/14 15:14:56;;;;;;;15.45;4.80;;;;;;;;;;4966904;28;20155;-80
2021/09/14 15:17:23;;;;;;;14.90;5.97;;;;;;;;;;4953315;28;20089;-81
2021/09/14 15:19:50;;;;;;;11.40;3.80;;;;;;;;;;4960988;28;20039;-81
2021/09/14 15:22:16;;;;;;;11.52;4.50;;;;;;;;;;4975164;28;20031;-81
2021/09/14 15:24:42;;;;;;;10.10;2.80;;;;;;;;;;4958862;28;20026;-81
2021/09/14 15:27:10;;;;;;;13.13;3.90;;;;;;;;;;4977127;28;20898;-81
2021/09/14 15:29:36;;;;;;;11.63;2.70;;;;;;;;;;4949201;28;21041;-81
2021/09/14 15:32:02;;;;;;;9.90;2.72;;;;;;;;;;4939163;28;20038;-81
2021/09/14 15:34:32;;;;;;;9.55;2.20;;;;;;;;;;4931490;28;20057;-82
2021/09/14 15:36:58;;;;;;;8.68;2.70;;;;;;;;;;4943542;28;20146;-81
2021/09/14 15:39:24;;;;;;;11.98;2.95;;;;;;;;;;4952882;28;20022;-80
2021/09/14 15:41:50;;;;;;;10.95;2.40;;;;;;;;;;4956981;28;20027;-81